createdAt,value
2016-06-09T00:00:23.782Z,23.24
2016-06-09T00:00:54.860Z,23.2
2016-06-09T00:01:25.974Z,23.17
2016-06-09T00:01:57.083Z,23.23
2016-06-09T00:02:28.164Z,23.25
2016-06-09T00:03:02.820Z,23.23
2016-06-09T00:03:33.386Z,23.24
2016-06-09T00:04:04.480Z,23.18
2016-06-09T00:04:38.592Z,23.2
2016-06-09T00:05:12.670Z,23.15
2016-06-09T00:05:43.783Z,23.23
2016-06-09T00:06:14.923Z,23.23
2016-06-09T00:06:49.020Z,23.24
2016-06-09T00:07:20.101Z,23.18
2016-06-09T00:07:51.226Z,23.21
2016-06-09T00:08:25.355Z,23.17
2016-06-09T00:08:59.480Z,23.2
2016-06-09T00:09:30.560Z,23.18
2016-06-09T00:10:01.654Z,23.15
2016-06-09T00:10:32.736Z,23.2
2016-06-09T00:11:03.892Z,23.17
2016-06-09T00:11:38.019Z,23.27
2016-06-09T00:12:12.113Z,23.15
2016-06-09T00:12:46.225Z,23.2
2016-06-09T00:13:17.322Z,23.18
2016-06-09T00:13:51.572Z,23.17
2016-06-09T00:14:22.669Z,23.17
2016-06-09T00:14:53.778Z,23.15
2016-06-09T00:15:30.297Z,23.17
2016-06-09T00:16:01.422Z,23.13
2016-06-09T00:16:32.566Z,23.21
2016-06-09T00:17:03.644Z,23.13
2016-06-09T00:17:37.757Z,23.15
2016-06-09T00:18:08.898Z,23.08
2016-06-09T00:18:39.993Z,23.21
2016-06-09T00:19:11.087Z,23.2
2016-06-09T00:19:45.185Z,23.15
2016-06-09T00:20:19.282Z,23.09
2016-06-09T00:20:53.407Z,23.13
2016-06-09T00:21:27.503Z,23.09
2016-06-09T00:21:58.628Z,23.1
2016-06-09T00:22:29.725Z,23.15
2016-06-09T00:23:03.866Z,23.13
2016-06-09T00:23:37.995Z,23.2
2016-06-09T00:24:09.073Z,23.2
2016-06-09T00:24:40.169Z,23.13
2016-06-09T00:25:14.294Z,23.09
2016-06-09T00:25:48.390Z,23.12
2016-06-09T00:26:19.535Z,23.12
2016-06-09T00:26:53.629Z,23.12
2016-06-09T00:27:27.757Z,23.13
2016-06-09T00:28:01.851Z,23.17
2016-06-09T00:28:32.963Z,23.13
2016-06-09T00:29:07.088Z,23.09
2016-06-09T00:29:38.184Z,23.08
2016-06-09T00:30:09.262Z,23.08
2016-06-09T00:30:40.406Z,23.2
2016-06-09T00:31:11.516Z,23.09
2016-06-09T00:31:42.597Z,23.18
2016-06-09T00:32:16.706Z,23.13
2016-06-09T00:32:47.803Z,23.17
2016-06-09T00:33:22.087Z,23.12
2016-06-09T00:33:56.056Z,23.1
2016-06-09T00:34:27.137Z,23.1
2016-06-09T00:34:58.247Z,23.12
2016-06-09T00:35:29.407Z,23.18
2016-06-09T00:36:03.501Z,23.17
2016-06-09T00:36:34.612Z,23.15
2016-06-09T00:37:05.721Z,23.2
2016-06-09T00:37:39.818Z,23.1
2016-06-09T00:38:10.912Z,23.17
2016-06-09T00:38:45.041Z,23.17
2016-06-09T00:39:16.119Z,23.13
2016-06-09T00:39:47.199Z,23.18
2016-06-09T00:40:21.327Z,23.13
2016-06-09T00:40:55.421Z,23.12
2016-06-09T00:41:26.534Z,23.09
2016-06-09T00:41:57.659Z,23.12
2016-06-09T00:42:31.756Z,23.12
2016-06-09T00:43:02.865Z,23.17
2016-06-09T00:43:33.992Z,23.1
2016-06-09T00:44:08.102Z,23.15
2016-06-09T00:44:39.278Z,23.21
2016-06-09T00:45:13.418Z,23.15
2016-06-09T00:45:44.498Z,23.17
2016-06-09T00:46:15.608Z,23.17
2016-06-09T00:46:46.737Z,23.13
2016-06-09T00:47:17.896Z,23.17
2016-06-09T00:47:48.974Z,23.18
2016-06-09T00:48:20.321Z,23.13
2016-06-09T00:48:54.165Z,23.13
2016-06-09T00:49:28.261Z,23.13
2016-06-09T00:49:59.371Z,23.1
2016-06-09T00:50:30.514Z,23.13
2016-06-09T00:51:01.608Z,23.21
2016-06-09T00:51:35.706Z,23.17
2016-06-09T00:52:06.878Z,23.17
2016-06-09T00:52:37.989Z,23.08
2016-06-09T00:53:09.083Z,23.08
2016-06-09T00:53:40.196Z,23.2
2016-06-09T00:54:11.321Z,23.12
2016-06-09T00:54:42.434Z,23.13
2016-06-09T00:55:16.512Z,23.12
2016-06-09T00:55:50.639Z,23.12
2016-06-09T00:56:24.735Z,23.12
2016-06-09T00:56:55.860Z,23.06
2016-06-09T00:57:26.958Z,23.09
2016-06-09T00:57:58.036Z,23.12
2016-06-09T00:58:29.133Z,23.12
2016-06-09T00:59:03.258Z,23.12
2016-06-09T00:59:34.339Z,23.06
2016-06-09T01:00:05.433Z,23.15
2016-06-09T01:00:39.623Z,23.13
2016-06-09T01:01:10.764Z,23.09
2016-06-09T01:01:41.955Z,23.12
2016-06-09T01:02:16.095Z,23.12
2016-06-09T01:02:50.192Z,23.1
2016-06-09T01:03:24.320Z,22.99
2016-06-09T01:03:58.414Z,23.09
2016-06-09T01:04:29.542Z,23.12
2016-06-09T01:05:00.667Z,23.12
2016-06-09T01:05:31.749Z,23.09
2016-06-09T01:06:02.827Z,23.12
2016-06-09T01:06:33.938Z,23.09
2016-06-09T01:07:05.063Z,23.09
2016-06-09T01:07:39.176Z,23.13
2016-06-09T01:08:13.301Z,23.08
2016-06-09T01:08:44.382Z,23.03
2016-06-09T01:09:15.476Z,23.05
2016-06-09T01:09:46.620Z,23.06
2016-06-09T01:10:17.714Z,23.08
2016-06-09T01:10:51.858Z,23.08
2016-06-09T01:11:22.939Z,23.08
2016-06-09T01:11:54.064Z,23.12
2016-06-09T01:12:25.192Z,23.08
2016-06-09T01:12:56.270Z,23.06
2016-06-09T01:13:27.382Z,23.06
2016-06-09T01:13:58.492Z,23.06
2016-06-09T01:14:29.604Z,23.05
2016-06-09T01:15:00.713Z,23.05
2016-06-09T01:15:31.826Z,23.08
2016-06-09T01:16:02.935Z,23.09
2016-06-09T01:16:34.032Z,23.1
2016-06-09T01:17:05.172Z,23.08
2016-06-09T01:17:36.269Z,23
2016-06-09T01:18:07.347Z,23.09
2016-06-09T01:18:38.445Z,23.05
2016-06-09T01:19:09.570Z,23.05
2016-06-09T01:19:40.713Z,23.05
2016-06-09T01:20:11.869Z,23.05
2016-06-09T01:20:45.950Z,23.06
2016-06-09T01:21:17.106Z,23.03
2016-06-09T01:21:51.204Z,23.03
2016-06-09T01:22:25.332Z,23.08
2016-06-09T01:22:56.410Z,23.06
2016-06-09T01:23:27.490Z,23.1
2016-06-09T01:24:01.600Z,23.03
2016-06-09T01:24:32.729Z,23.05
2016-06-09T01:25:03.822Z,23.06
2016-06-09T01:25:37.935Z,23.03
2016-06-09T01:26:12.029Z,23.03
2016-06-09T01:26:43.141Z,23.08
2016-06-09T01:27:14.282Z,23.05
2016-06-09T01:27:45.377Z,23.03
2016-06-09T01:28:16.455Z,23.06
2016-06-09T01:28:47.553Z,23.09
2016-06-09T01:29:21.651Z,23.03
2016-06-09T01:29:52.807Z,23.02
2016-06-09T01:30:23.887Z,23.03
2016-06-09T01:30:58.012Z,23.08
2016-06-09T01:31:32.109Z,23
2016-06-09T01:32:06.234Z,23.08
2016-06-09T01:32:37.315Z,23.08
2016-06-09T01:33:11.471Z,22.99
2016-06-09T01:33:42.585Z,23.02
2016-06-09T01:34:16.679Z,23
2016-06-09T01:34:50.821Z,23.02
2016-06-09T01:35:24.918Z,23.03
2016-06-09T01:35:59.012Z,22.98
2016-06-09T01:36:30.125Z,22.93
2016-06-09T01:37:01.266Z,23.03
2016-06-09T01:37:32.393Z,22.94
2016-06-09T01:38:03.471Z,22.91
2016-06-09T01:38:37.584Z,23.03
2016-06-09T01:39:08.662Z,22.99
2016-06-09T01:39:42.759Z,22.93
2016-06-09T01:40:13.900Z,23.02
2016-06-09T01:40:44.996Z,22.93
2016-06-09T01:41:16.075Z,22.96
2016-06-09T01:41:50.187Z,23
2016-06-09T01:42:21.268Z,23.02
2016-06-09T01:42:55.377Z,23.02
2016-06-09T01:43:26.490Z,22.93
2016-06-09T01:43:57.568Z,22.98
2016-06-09T01:44:31.665Z,22.94
2016-06-09T01:45:05.790Z,22.96
2016-06-09T01:45:39.919Z,22.9
2016-06-09T01:46:10.981Z,22.99
2016-06-09T01:46:42.108Z,22.98
2016-06-09T01:47:13.202Z,22.98
2016-06-09T01:47:44.331Z,23.02
2016-06-09T01:48:15.440Z,22.96
2016-06-09T01:48:46.521Z,22.93
2016-06-09T01:49:20.634Z,22.96
2016-06-09T01:49:51.712Z,22.99
2016-06-09T01:50:22.809Z,22.98
2016-06-09T01:50:53.902Z,22.93
2016-06-09T01:51:28.030Z,22.93
2016-06-09T01:51:59.109Z,22.99
2016-06-09T01:52:30.205Z,22.93
2016-06-09T01:53:01.330Z,22.99
2016-06-09T01:53:32.536Z,22.94
2016-06-09T01:54:03.630Z,23.03
2016-06-09T01:54:37.742Z,22.93
2016-06-09T01:55:08.820Z,23.02
2016-06-09T01:55:39.917Z,23.02
2016-06-09T01:56:11.011Z,22.93
2016-06-09T01:56:42.124Z,22.87
2016-06-09T01:57:13.249Z,22.96
2016-06-09T01:57:44.330Z,22.93
2016-06-09T01:58:18.439Z,22.94
2016-06-09T01:58:49.551Z,22.99
2016-06-09T01:59:23.649Z,22.91
2016-06-09T01:59:57.774Z,22.99
2016-06-09T02:00:28.886Z,22.96
2016-06-09T02:00:59.995Z,22.84
2016-06-09T02:01:31.107Z,22.98
2016-06-09T02:02:02.232Z,22.99
2016-06-09T02:02:33.314Z,22.83
2016-06-09T02:03:07.424Z,22.84
2016-06-09T02:03:41.521Z,23
2016-06-09T02:04:12.630Z,22.84
2016-06-09T02:04:43.758Z,22.87
2016-06-09T02:05:14.883Z,22.99
2016-06-09T02:05:48.980Z,22.84
2016-06-09T02:06:20.089Z,22.91
2016-06-09T02:06:54.186Z,22.9
2016-06-09T02:07:28.283Z,22.91
2016-06-09T02:07:59.376Z,22.88
2016-06-09T02:08:33.473Z,22.94
2016-06-09T02:09:07.598Z,22.85
2016-06-09T02:09:38.679Z,22.84
2016-06-09T02:10:09.773Z,23
2016-06-09T02:10:40.901Z,22.93
2016-06-09T02:11:15.026Z,22.94
2016-06-09T02:11:49.123Z,22.96
2016-06-09T02:12:23.219Z,22.9
2016-06-09T02:12:57.344Z,23.03
2016-06-09T02:13:28.442Z,23.03
2016-06-09T02:14:02.552Z,22.94
2016-06-09T02:14:36.663Z,22.96
2016-06-09T02:15:10.772Z,22.88
2016-06-09T02:15:47.167Z,22.99
2016-06-09T02:16:18.276Z,22.99
2016-06-09T02:16:49.373Z,22.99
2016-06-09T02:17:23.454Z,22.91
2016-06-09T02:17:57.564Z,23.03
2016-06-09T02:18:29.159Z,22.96
2016-06-09T02:19:00.269Z,22.93
2016-06-09T02:19:30.820Z,22.96
2016-06-09T02:20:01.960Z,22.87
2016-06-09T02:20:36.057Z,22.88
2016-06-09T02:21:07.151Z,23.02
2016-06-09T02:21:38.293Z,23.06
2016-06-09T02:22:12.387Z,22.93
2016-06-09T02:22:46.516Z,22.99
2016-06-09T02:23:17.594Z,22.96
2016-06-09T02:23:51.691Z,23
2016-06-09T02:24:22.803Z,22.94
2016-06-09T02:24:53.881Z,22.87
2016-06-09T02:25:24.963Z,22.93
2016-06-09T02:25:59.088Z,22.87
2016-06-09T02:26:30.169Z,22.88
2016-06-09T02:27:04.278Z,22.87
2016-06-09T02:27:35.375Z,22.9
2016-06-09T02:28:06.453Z,22.83
2016-06-09T02:28:37.535Z,22.88
2016-06-09T02:29:08.660Z,22.96
2016-06-09T02:29:42.804Z,22.94
2016-06-09T02:30:13.882Z,22.9
2016-06-09T02:30:47.994Z,22.85
2016-06-09T02:31:22.091Z,22.85
2016-06-09T02:31:53.200Z,22.85
2016-06-09T02:32:24.344Z,22.85
2016-06-09T02:32:58.469Z,22.9
2016-06-09T02:33:32.988Z,22.87
2016-06-09T02:34:03.691Z,22.83
2016-06-09T02:34:34.772Z,22.81
2016-06-09T02:35:08.881Z,22.85
2016-06-09T02:35:42.978Z,22.87
2016-06-09T02:36:14.087Z,22.84
2016-06-09T02:36:45.215Z,22.85
2016-06-09T02:37:16.293Z,22.87
2016-06-09T02:37:50.406Z,22.85
2016-06-09T02:38:21.484Z,22.84
2016-06-09T02:38:55.597Z,22.87
2016-06-09T02:39:26.724Z,22.88
2016-06-09T02:40:00.818Z,22.81
2016-06-09T02:40:34.946Z,22.94
2016-06-09T02:41:09.024Z,22.9
2016-06-09T02:41:40.153Z,22.84
2016-06-09T02:42:11.309Z,22.91
2016-06-09T02:42:45.406Z,22.85
2016-06-09T02:43:16.500Z,22.94
2016-06-09T02:43:50.643Z,22.85
2016-06-09T02:44:24.756Z,22.83
2016-06-09T02:44:58.881Z,22.85
2016-06-09T02:45:29.961Z,22.88
2016-06-09T02:46:04.070Z,22.9
2016-06-09T02:46:38.184Z,22.96
2016-06-09T02:47:09.309Z,22.85
2016-06-09T02:47:43.437Z,22.9
2016-06-09T02:48:14.515Z,22.85
2016-06-09T02:48:49.189Z,22.85
2016-06-09T02:49:23.412Z,22.99
2016-06-09T02:49:53.818Z,22.9
2016-06-09T02:50:24.915Z,22.85
2016-06-09T02:50:56.040Z,22.87
2016-06-09T02:51:30.136Z,22.87
2016-06-09T02:52:04.277Z,22.83
2016-06-09T02:52:38.374Z,22.84
2016-06-09T02:53:12.499Z,22.88
2016-06-09T02:53:43.611Z,22.99
2016-06-09T02:54:14.674Z,22.94
2016-06-09T02:54:45.802Z,22.94
2016-06-09T02:55:16.927Z,23.02
2016-06-09T02:55:48.024Z,22.98
2016-06-09T02:56:22.102Z,22.98
2016-06-09T02:56:56.214Z,23.02
2016-06-09T02:57:27.295Z,22.94
2016-06-09T02:58:01.404Z,22.99
2016-06-09T02:58:32.486Z,22.91
2016-06-09T02:59:06.596Z,22.91
2016-06-09T02:59:40.708Z,22.99
2016-06-09T03:00:11.833Z,23
2016-06-09T03:00:42.945Z,22.91
2016-06-09T03:01:14.054Z,22.88
2016-06-09T03:01:45.214Z,22.96
2016-06-09T03:02:16.324Z,23.03
2016-06-09T03:02:47.436Z,22.93
2016-06-09T03:03:18.577Z,22.93
2016-06-09T03:03:52.798Z,22.96
2016-06-09T03:04:23.754Z,23.02
2016-06-09T03:04:54.895Z,22.88
2016-06-09T03:05:25.993Z,22.96
2016-06-09T03:05:57.087Z,22.98
2016-06-09T03:06:31.198Z,23.02
2016-06-09T03:07:02.276Z,22.87
2016-06-09T03:07:36.373Z,22.94
2016-06-09T03:08:10.498Z,22.98
2016-06-09T03:08:41.580Z,22.94
2016-06-09T03:09:12.674Z,22.93
2016-06-09T03:09:43.802Z,22.91
2016-06-09T03:10:14.927Z,22.99
2016-06-09T03:10:49.022Z,22.96
2016-06-09T03:11:20.147Z,23.02
2016-06-09T03:11:51.292Z,22.87
2016-06-09T03:12:22.370Z,22.85
2016-06-09T03:12:56.483Z,22.99
2016-06-09T03:13:27.611Z,22.85
2016-06-09T03:13:58.704Z,22.85
2016-06-09T03:14:29.784Z,22.81
2016-06-09T03:15:03.878Z,22.88
2016-06-09T03:15:34.976Z,22.84
2016-06-09T03:16:11.476Z,22.87
2016-06-09T03:16:42.557Z,22.88
2016-06-09T03:17:13.651Z,22.85
2016-06-09T03:17:47.779Z,22.85
2016-06-09T03:18:18.873Z,22.85
2016-06-09T03:18:50.469Z,22.87
2016-06-09T03:19:21.907Z,22.84
2016-06-09T03:19:52.238Z,22.81
2016-06-09T03:20:26.335Z,22.91
2016-06-09T03:20:57.444Z,22.85
2016-06-09T03:21:28.588Z,22.81
2016-06-09T03:22:02.697Z,22.9
2016-06-09T03:22:33.778Z,22.96
2016-06-09T03:23:04.903Z,22.93
2016-06-09T03:23:36.016Z,22.94
2016-06-09T03:24:10.125Z,22.91
2016-06-09T03:24:44.269Z,22.85
2016-06-09T03:25:15.378Z,23.03
2016-06-09T03:25:49.491Z,22.87
2016-06-09T03:26:20.569Z,22.98
2016-06-09T03:26:54.666Z,22.85
2016-06-09T03:27:25.824Z,22.85
2016-06-09T03:27:59.918Z,22.88
2016-06-09T03:28:34.047Z,22.88
2016-06-09T03:29:05.125Z,22.87
2016-06-09T03:29:36.206Z,22.84
2016-06-09T03:30:10.331Z,22.9
2016-06-09T03:30:41.413Z,22.88
2016-06-09T03:31:15.506Z,22.85
2016-06-09T03:31:46.634Z,22.91
2016-06-09T03:32:20.728Z,22.9
2016-06-09T03:32:54.857Z,22.9
2016-06-09T03:33:25.953Z,22.9
2016-06-09T03:33:57.297Z,22.81
2016-06-09T03:34:28.190Z,22.87
2016-06-09T03:34:59.534Z,22.85
2016-06-09T03:35:33.382Z,22.84
2016-06-09T03:36:07.507Z,22.85
2016-06-09T03:36:41.588Z,22.78
2016-06-09T03:37:15.744Z,22.9
2016-06-09T03:37:49.855Z,22.88
2016-06-09T03:38:23.953Z,22.88
2016-06-09T03:38:55.031Z,22.78
2016-06-09T03:39:29.175Z,22.9
2016-06-09T03:40:00.253Z,22.9
2016-06-09T03:40:34.381Z,22.88
2016-06-09T03:41:05.475Z,22.9
2016-06-09T03:41:36.555Z,22.85
2016-06-09T03:42:07.664Z,22.78
2016-06-09T03:42:41.809Z,22.85
2016-06-09T03:43:12.887Z,22.91
2016-06-09T03:43:43.984Z,22.85
2016-06-09T03:44:15.124Z,22.9
2016-06-09T03:44:46.206Z,22.88
2016-06-09T03:45:20.299Z,22.88
2016-06-09T03:45:51.427Z,22.88
2016-06-09T03:46:22.521Z,22.88
2016-06-09T03:46:56.618Z,22.88
2016-06-09T03:47:30.730Z,22.85
2016-06-09T03:48:04.840Z,22.81
2016-06-09T03:48:38.952Z,22.81
2016-06-09T03:49:10.093Z,22.83
2016-06-09T03:49:41.222Z,22.84
2016-06-09T03:50:12.315Z,22.9
2016-06-09T03:50:46.395Z,22.87
2016-06-09T03:51:17.505Z,22.88
2016-06-09T03:51:51.633Z,22.88
2016-06-09T03:52:25.715Z,22.81
2016-06-09T03:52:56.824Z,22.85
2016-06-09T03:53:27.921Z,22.78
2016-06-09T03:54:02.015Z,22.88
2016-06-09T03:54:33.095Z,22.8
2016-06-09T03:55:04.204Z,22.76
2016-06-09T03:55:35.318Z,22.9
2016-06-09T03:56:09.458Z,22.87
2016-06-09T03:56:40.539Z,22.88
2016-06-09T03:57:11.633Z,22.8
2016-06-09T03:57:45.761Z,22.84
2016-06-09T03:58:16.839Z,22.81
2016-06-09T03:58:50.920Z,22.88
2016-06-09T03:59:25.017Z,22.76
2016-06-09T03:59:56.142Z,22.93
2016-06-09T04:00:27.270Z,22.9
2016-06-09T04:00:58.364Z,22.91
2016-06-09T04:01:32.445Z,22.9
2016-06-09T04:02:03.586Z,22.87
2016-06-09T04:02:34.683Z,22.9
2016-06-09T04:03:05.762Z,22.88
2016-06-09T04:03:36.858Z,22.87
2016-06-09T04:04:07.968Z,22.9
2016-06-09T04:04:39.157Z,22.88
2016-06-09T04:05:10.173Z,22.81
2016-06-09T04:05:44.286Z,22.88
2016-06-09T04:06:15.442Z,22.8
2016-06-09T04:06:49.539Z,22.9
2016-06-09T04:07:23.649Z,22.87
2016-06-09T04:07:54.745Z,22.87
2016-06-09T04:08:28.872Z,22.88
2016-06-09T04:09:02.966Z,22.87
2016-06-09T04:09:37.095Z,22.78
2016-06-09T04:10:11.189Z,22.88
2016-06-09T04:10:45.317Z,22.73
2016-06-09T04:11:19.411Z,22.9
2016-06-09T04:11:50.539Z,22.93
2016-06-09T04:12:21.648Z,22.9
2016-06-09T04:12:52.729Z,22.83
2016-06-09T04:13:26.873Z,22.78
2016-06-09T04:13:57.966Z,22.78
2016-06-09T04:14:32.063Z,22.87
2016-06-09T04:15:03.204Z,22.9
2016-06-09T04:15:34.286Z,22.96
2016-06-09T04:16:05.380Z,22.8
2016-06-09T04:16:36.492Z,22.85
2016-06-09T04:17:10.601Z,22.85
2016-06-09T04:17:41.682Z,22.83
2016-06-09T04:18:12.760Z,22.76
2016-06-09T04:18:43.888Z,22.88
2016-06-09T04:19:18.028Z,22.78
2016-06-09T04:19:52.298Z,22.91
2016-06-09T04:20:23.204Z,22.81
2016-06-09T04:20:57.317Z,22.81
2016-06-09T04:21:31.428Z,22.78
2016-06-09T04:22:02.522Z,22.87
2016-06-09T04:22:33.635Z,22.85
2016-06-09T04:23:04.776Z,22.78
2016-06-09T04:23:35.857Z,22.8
2016-06-09T04:24:06.935Z,22.84
2016-06-09T04:24:38.016Z,22.78
2016-06-09T04:25:12.188Z,22.81
2016-06-09T04:25:46.285Z,22.8
2016-06-09T04:26:20.410Z,22.81
2016-06-09T04:26:54.506Z,22.88
2016-06-09T04:27:28.634Z,22.78
2016-06-09T04:27:59.728Z,22.85
2016-06-09T04:28:30.825Z,22.87
2016-06-09T04:29:01.950Z,22.81
2016-06-09T04:29:33.095Z,22.87
2016-06-09T04:30:04.173Z,22.91
2016-06-09T04:30:35.269Z,22.75
2016-06-09T04:31:06.410Z,22.91
2016-06-09T04:31:37.538Z,22.88
2016-06-09T04:32:11.663Z,22.87
2016-06-09T04:32:42.821Z,22.76
2016-06-09T04:33:13.931Z,22.91
2016-06-09T04:33:48.060Z,22.84
2016-06-09T04:34:19.138Z,22.9
2016-06-09T04:34:50.266Z,22.9
2016-06-09T04:35:21.531Z,22.73
2016-06-09T04:35:55.502Z,22.93
2016-06-09T04:36:26.600Z,22.73
2016-06-09T04:36:57.725Z,22.85
2016-06-09T04:37:31.853Z,22.75
2016-06-09T04:38:02.931Z,22.87
2016-06-09T04:38:34.059Z,22.85
2016-06-09T04:39:05.153Z,22.9
2016-06-09T04:39:39.296Z,22.83
2016-06-09T04:40:10.390Z,22.87
2016-06-09T04:40:41.487Z,22.88
2016-06-09T04:41:12.628Z,22.87
2016-06-09T04:41:43.724Z,22.88
2016-06-09T04:42:14.818Z,22.88
2016-06-09T04:42:45.899Z,22.85
2016-06-09T04:43:20.024Z,22.87
2016-06-09T04:43:51.106Z,22.88
2016-06-09T04:44:22.200Z,22.87
2016-06-09T04:44:53.327Z,22.9
2016-06-09T04:45:24.452Z,22.88
2016-06-09T04:45:55.564Z,22.87
2016-06-09T04:46:26.647Z,22.88
2016-06-09T04:46:57.740Z,22.9
2016-06-09T04:47:28.853Z,22.87
2016-06-09T04:48:02.978Z,22.85
2016-06-09T04:48:34.058Z,22.91
2016-06-09T04:49:05.855Z,22.78
2016-06-09T04:49:36.281Z,22.78
2016-06-09T04:50:07.421Z,22.93
2016-06-09T04:50:38.502Z,22.91
2016-06-09T04:51:12.596Z,22.93
2016-06-09T04:51:43.724Z,22.88
2016-06-09T04:52:14.818Z,22.76
2016-06-09T04:52:48.915Z,22.8
2016-06-09T04:53:20.024Z,22.88
2016-06-09T04:53:51.136Z,22.87
2016-06-09T04:54:25.246Z,22.78
2016-06-09T04:54:56.389Z,22.76
2016-06-09T04:55:27.486Z,22.9
2016-06-09T04:56:01.580Z,22.93
2016-06-09T04:56:35.770Z,22.73
2016-06-09T04:57:09.864Z,22.87
2016-06-09T04:57:40.977Z,22.91
2016-06-09T04:58:15.118Z,22.94
2016-06-09T04:58:46.230Z,22.88
2016-06-09T04:59:17.371Z,22.91
2016-06-09T04:59:48.467Z,22.85
2016-06-09T05:00:19.561Z,22.76
2016-06-09T05:00:50.658Z,22.87
2016-06-09T05:01:24.768Z,22.8
2016-06-09T05:01:55.849Z,22.91
2016-06-09T05:02:30.008Z,22.84
2016-06-09T05:03:04.086Z,22.81
2016-06-09T05:03:35.199Z,22.81
2016-06-09T05:04:06.324Z,22.88
2016-06-09T05:04:37.419Z,22.87
2016-06-09T05:05:11.529Z,22.84
2016-06-09T05:05:42.642Z,22.84
2016-06-09T05:06:13.783Z,22.94
2016-06-09T05:06:44.879Z,22.8
2016-06-09T05:07:18.973Z,22.8
2016-06-09T05:07:50.117Z,22.93
2016-06-09T05:08:24.226Z,22.9
2016-06-09T05:08:58.340Z,22.76
2016-06-09T05:09:29.420Z,22.87
2016-06-09T05:10:00.498Z,22.75
2016-06-09T05:10:31.610Z,22.73
2016-06-09T05:11:05.735Z,22.81
2016-06-09T05:11:36.833Z,22.78
2016-06-09T05:12:07.911Z,22.8
2016-06-09T05:12:42.039Z,22.8
2016-06-09T05:13:13.117Z,22.8
2016-06-09T05:13:44.213Z,22.85
2016-06-09T05:14:15.338Z,22.88
2016-06-09T05:14:46.467Z,22.85
2016-06-09T05:15:20.529Z,22.85
2016-06-09T05:15:51.642Z,22.81
2016-06-09T05:16:28.067Z,22.83
2016-06-09T05:17:02.223Z,22.91
2016-06-09T05:17:33.320Z,22.88
2016-06-09T05:18:04.413Z,22.91
2016-06-09T05:18:38.541Z,22.91
2016-06-09T05:19:12.635Z,22.9
2016-06-09T05:19:43.748Z,22.87
2016-06-09T05:20:17.873Z,22.83
2016-06-09T05:20:48.969Z,22.83
2016-06-09T05:21:20.110Z,22.85
2016-06-09T05:21:54.238Z,22.88
2016-06-09T05:22:28.366Z,22.93
2016-06-09T05:23:02.460Z,22.85
2016-06-09T05:23:33.572Z,22.85
2016-06-09T05:24:07.713Z,22.83
2016-06-09T05:24:38.794Z,22.85
2016-06-09T05:25:12.888Z,22.87
2016-06-09T05:25:47.001Z,22.88
2016-06-09T05:26:18.126Z,22.85
2016-06-09T05:26:49.238Z,22.85
2016-06-09T05:27:20.332Z,22.88
2016-06-09T05:27:51.444Z,22.87
2016-06-09T05:28:25.569Z,22.88
2016-06-09T05:28:59.650Z,22.84
2016-06-09T05:29:30.763Z,22.98
2016-06-09T05:30:01.872Z,22.88
2016-06-09T05:30:33.016Z,22.87
2016-06-09T05:31:07.110Z,22.85
2016-06-09T05:31:38.238Z,22.83
2016-06-09T05:32:12.363Z,22.84
2016-06-09T05:32:46.459Z,22.83
2016-06-09T05:33:17.616Z,22.85
2016-06-09T05:33:48.697Z,22.84
2016-06-09T05:34:22.947Z,22.84
2016-06-09T05:34:54.044Z,22.85
2016-06-09T05:35:28.141Z,22.85
2016-06-09T05:36:02.266Z,22.81
2016-06-09T05:36:36.393Z,22.9
2016-06-09T05:37:10.628Z,22.88
2016-06-09T05:37:41.756Z,22.83
2016-06-09T05:38:15.896Z,22.88
2016-06-09T05:38:50.009Z,22.9
2016-06-09T05:39:21.134Z,22.91
2016-06-09T05:39:52.216Z,22.9
2016-06-09T05:40:23.294Z,22.93
2016-06-09T05:40:57.438Z,22.88
2016-06-09T05:41:28.550Z,22.73
2016-06-09T05:42:02.737Z,22.91
2016-06-09T05:42:33.819Z,22.91
2016-06-09T05:43:04.912Z,22.91
2016-06-09T05:43:39.008Z,22.87
2016-06-09T05:44:13.086Z,22.88
2016-06-09T05:44:47.200Z,22.88
2016-06-09T05:45:18.293Z,22.88
2016-06-09T05:45:49.373Z,22.75
2016-06-09T05:46:20.498Z,22.88
2016-06-09T05:46:51.627Z,22.88
2016-06-09T05:47:22.737Z,22.76
2016-06-09T05:47:53.818Z,22.87
2016-06-09T05:48:27.959Z,22.85
2016-06-09T05:48:59.055Z,22.88
2016-06-09T05:49:33.136Z,22.8
2016-06-09T05:50:04.246Z,22.88
2016-06-09T05:50:35.389Z,22.88
2016-06-09T05:51:06.436Z,22.9
2016-06-09T05:51:37.517Z,22.87
2016-06-09T05:52:11.627Z,22.8
2016-06-09T05:52:42.708Z,22.75
2016-06-09T05:53:16.786Z,22.88
2016-06-09T05:53:47.914Z,22.84
2016-06-09T05:54:22.008Z,22.87
2016-06-09T05:54:56.121Z,22.85
2016-06-09T05:55:27.402Z,22.8
2016-06-09T05:55:58.546Z,22.83
2016-06-09T05:56:29.689Z,22.83
2016-06-09T05:57:03.814Z,22.83
2016-06-09T05:57:37.974Z,22.84
2016-06-09T05:58:09.052Z,22.87
2016-06-09T05:58:40.149Z,22.9
2016-06-09T05:59:11.243Z,22.83
2016-06-09T05:59:42.355Z,22.8
2016-06-09T06:00:13.480Z,22.81
2016-06-09T06:00:47.561Z,22.8
2016-06-09T06:01:18.670Z,22.88
2016-06-09T06:01:52.768Z,22.84
2016-06-09T06:02:23.862Z,22.8
2016-06-09T06:02:54.958Z,22.9
2016-06-09T06:03:26.083Z,22.91
2016-06-09T06:04:00.196Z,22.81
2016-06-09T06:04:31.698Z,22.78
2016-06-09T06:05:02.432Z,22.9
2016-06-09T06:05:34.014Z,22.91
2016-06-09T06:06:04.607Z,22.88
2016-06-09T06:06:35.704Z,22.88
2016-06-09T06:07:06.813Z,22.83
2016-06-09T06:07:37.941Z,22.81
2016-06-09T06:08:12.035Z,22.9
2016-06-09T06:08:46.148Z,22.85
2016-06-09T06:09:20.241Z,22.84
2016-06-09T06:09:51.355Z,22.83
2016-06-09T06:10:22.480Z,22.78
2016-06-09T06:10:53.561Z,22.85
2016-06-09T06:11:24.655Z,22.83
2016-06-09T06:11:58.767Z,22.83
2016-06-09T06:12:29.848Z,22.75
2016-06-09T06:13:00.942Z,22.93
2016-06-09T06:13:32.054Z,22.88
2016-06-09T06:14:06.179Z,22.88
2016-06-09T06:14:37.260Z,22.88
2016-06-09T06:15:08.338Z,22.9
2016-06-09T06:15:42.466Z,22.78
2016-06-09T06:16:18.873Z,22.84
2016-06-09T06:16:52.985Z,22.81
2016-06-09T06:17:24.079Z,22.91
2016-06-09T06:17:55.222Z,22.9
2016-06-09T06:18:29.332Z,22.8
2016-06-09T06:19:00.445Z,22.81
2016-06-09T06:19:31.573Z,22.81
2016-06-09T06:20:02.667Z,22.81
2016-06-09T06:20:33.779Z,22.81
2016-06-09T06:21:04.842Z,22.78
2016-06-09T06:21:35.939Z,22.81
2016-06-09T06:22:07.095Z,22.91
2016-06-09T06:22:38.176Z,22.8
2016-06-09T06:23:12.270Z,22.84
2016-06-09T06:23:43.413Z,22.91
2016-06-09T06:24:14.507Z,22.83
2016-06-09T06:24:48.604Z,22.91
2016-06-09T06:25:19.729Z,22.91
2016-06-09T06:25:50.826Z,22.75
2016-06-09T06:26:21.919Z,22.75
2016-06-09T06:26:56.032Z,22.91
2016-06-09T06:27:27.125Z,22.8
2016-06-09T06:27:58.207Z,22.76
2016-06-09T06:28:29.300Z,22.87
2016-06-09T06:29:00.444Z,22.9
2016-06-09T06:29:31.542Z,22.88
2016-06-09T06:30:02.635Z,22.84
2016-06-09T06:30:36.731Z,22.93
2016-06-09T06:31:07.809Z,22.78
2016-06-09T06:31:38.890Z,22.83
2016-06-09T06:32:10.000Z,22.88
2016-06-09T06:32:41.143Z,22.76
2016-06-09T06:33:15.253Z,22.8
2016-06-09T06:33:46.351Z,22.78
2016-06-09T06:34:17.491Z,22.85
2016-06-09T06:34:51.603Z,22.81
2016-06-09T06:35:26.165Z,22.91
2016-06-09T06:35:56.778Z,22.81
2016-06-09T06:36:30.922Z,22.88
2016-06-09T06:37:05.031Z,22.83
2016-06-09T06:37:36.144Z,22.87
2016-06-09T06:38:07.284Z,22.8
2016-06-09T06:38:38.397Z,22.8
2016-06-09T06:39:12.506Z,22.85
2016-06-09T06:39:43.634Z,22.88
2016-06-09T06:40:17.759Z,22.8
2016-06-09T06:40:51.918Z,22.8
2016-06-09T06:41:23.028Z,22.81
2016-06-09T06:41:54.140Z,22.88
2016-06-09T06:42:25.234Z,22.91
2016-06-09T06:42:56.362Z,22.84
2016-06-09T06:43:28.659Z,22.91
2016-06-09T06:43:58.600Z,22.8
2016-06-09T06:44:32.696Z,22.8
2016-06-09T06:45:03.915Z,22.93
2016-06-09T06:45:34.980Z,22.83
2016-06-09T06:46:06.137Z,22.78
2016-06-09T06:46:40.233Z,22.85
2016-06-09T06:47:11.327Z,22.85
2016-06-09T06:47:45.425Z,22.88
2016-06-09T06:48:19.565Z,22.88
2016-06-09T06:48:53.647Z,22.84
2016-06-09T06:49:24.740Z,22.84
2016-06-09T06:49:55.821Z,22.85
2016-06-09T06:50:27.181Z,22.85
2016-06-09T06:50:58.074Z,22.85
2016-06-09T06:51:29.168Z,22.85
2016-06-09T06:52:03.264Z,23
2016-06-09T06:52:34.409Z,23.08
2016-06-09T06:53:05.502Z,22.98
2016-06-09T06:53:36.583Z,23.06
2016-06-09T06:54:07.677Z,23.08
2016-06-09T06:54:38.805Z,23.03
2016-06-09T06:55:09.946Z,23.09
2016-06-09T06:55:44.043Z,23.06
2016-06-09T06:56:15.136Z,23.08
2016-06-09T06:56:49.280Z,23.08
2016-06-09T06:57:23.358Z,23.1